This is the latest recevied weather packets stored in our database for station/object K42C. If no packets are shown the sender has not sent any weather packets the latest 10 day(s).
| Time | Temp. | Humidity | Pressure | Rain* | Wind** | Luminosity | Snow |
|---|---|---|---|---|---|---|---|
| 1777814282 | 9.44° C | 71% | 974.8 hPa | 0 mm | 1.79 m/s, 210° | - | - |
| 1777813881 | 10° C | 71% | 974.7 hPa | 0 mm | 0.45 m/s, 232° | - | - |
| 1777813484 | 9.44° C | 72% | 974.9 hPa | 0 mm | 1.34 m/s, 207° | - | - |
| 1777813083 | 9.44° C | 71% | 975 hPa | 0 mm | 3.13 m/s, 198° | - | - |
| 1777812686 | 9.44° C | 72% | 975 hPa | 0 mm | 2.24 m/s, 235° | - | - |
| 1777811887 | 8.33° C | 76% | 975 hPa | 0 mm | 1.34 m/s, 219° | - | - |
| 1777811487 | 8.33° C | 76% | 974.9 hPa | 0 mm | 0.89 m/s, 232° | - | - |
| 1777811089 | 7.78° C | 79% | 975.1 hPa | 0 mm | 0 m/s | - | - |
| 1777810291 | 6.67° C | 83% | 975.1 hPa | 0 mm | 0.45 m/s, 219° | - | - |
| 1777809890 | 6.67° C | 85% | 975.3 hPa | 0 mm | 0 m/s | - | - |
| 1777809493 | 6.11° C | 86% | 975.3 hPa | 0 mm | 0 m/s | - | - |
| 1777809092 | 5.56° C | 88% | 975.2 hPa | 0 mm | 0 m/s | - | - |
| 1777808694 | 5° C | 90% | 975.4 hPa | 0 mm | 0 m/s | - | - |
| 1777808293 | 5° C | 91% | 975.3 hPa | 0 mm | 0 m/s | - | - |
| 1777807896 | 5° C | 90% | 975.2 hPa | 0 mm | 0 m/s | - | - |
| 1777807495 | 5° C | 90% | 975.2 hPa | 0 mm | 0 m/s | - | - |
| 1777807098 | 4.44° C | 91% | 975.3 hPa | 0 mm | 0 m/s | - | - |
| 1777806697 | 3.89° C | 92% | 975.5 hPa | 0 mm | 0 m/s | - | - |
| 1777806299 | 3.89° C | 92% | 975.4 hPa | 0 mm | 0 m/s | - | - |
| 1777805899 | 3.89° C | 92% | 975.3 hPa | 0 mm | 0 m/s | - | - |
| 1777805501 | 3.89° C | 92% | 975.3 hPa | 0 mm | 0 m/s | - | - |
| 1777805100 | 3.33° C | 92% | 975.4 hPa | 0 mm | 0 m/s | - | - |
| 1777804703 | 3.33° C | 91% | 975.4 hPa | 0 mm | 0 m/s | - | - |
| 1777804302 | 3.89° C | 91% | 975.4 hPa | 0 mm | 0 m/s | - | - |
| 1777803905 | 3.89° C | 90% | 975.5 hPa | 0 mm | 0 m/s | - | - |
* Rain latest hour (hover to see other rain measurements)
** Current wind speed in m/s (hover to see current wind gust speed)